Time;durP1;ratioP1;P1;durP2;ratioP2;P2;SDS_P1;SDS_P2;PMS_P1;PMS_P2;Temp;Humidity;BMP_temperature;BMP_pressure;BME280_temperature;BME280_humidity;BME280_pressure;Samples;Min_cycle;Max_cycle;Signal;HPM_P1;HPM_P2
2021/09/30 00:00:06;;;;;;;;;;;14.70;84.80;14.80;100702.00;;;;336581;28;87539;-91
2021/09/30 00:00:18;;;;;;;;;;;14.60;84.90;14.90;100702.00;;;;338123;28;82462;-91
2021/09/30 00:00:30;;;;;;;;;;;14.60;84.80;14.90;100708.00;;;;337803;28;85324;-91
2021/09/30 00:00:42;;;;;;;;;;;14.60;84.80;14.90;100706.00;;;;334182;29;83652;-91
2021/09/30 00:00:54;;;;;;;;;;;14.60;84.80;14.90;100699.00;;;;334084;29;86712;-91
2021/09/30 00:01:06;;;;;;;;;;;14.60;84.80;14.90;100712.00;;;;336845;28;82460;-91
2021/09/30 00:01:18;;;;;;;;;;;14.60;84.80;14.90;100712.00;;;;333955;29;87053;-91
2021/09/30 00:01:30;;;;;;;;;;;14.60;84.80;14.90;100706.00;;;;337886;28;82577;-91
2021/09/30 00:01:42;;;;;;;;;;;14.60;84.80;14.90;100700.00;;;;336659;28;86719;-91
2021/09/30 00:01:54;;;;;;;;;;;14.60;84.80;15.00;100707.00;;;;336720;28;83455;-92
2021/09/30 00:02:06;;;;;;;;;;;14.60;85.00;15.00;100701.00;;;;336598;28;87710;-91
2021/09/30 00:02:18;;;;;;;;;;;14.60;85.00;15.00;100705.00;;;;336725;28;83780;-91
2021/09/30 00:02:30;;;;;;;;;;;14.60;85.10;15.00;100706.00;;;;337854;28;87341;-91
2021/09/30 00:02:42;;;;;;;;;;;14.60;85.00;15.00;100702.00;;;;336808;28;83476;-92
2021/09/30 00:02:54;;;;;;;;;;;14.60;84.70;15.00;100705.00;;;;334052;29;86985;-91
2021/09/30 00:03:06;;;;;;;;;;;14.60;84.60;15.00;100704.00;;;;335339;29;83596;-91
2021/09/30 00:03:18;;;;;;;;;;;14.70;84.70;15.00;100703.00;;;;335264;29;86638;-92
2021/09/30 00:03:30;;;;;;;;;;;14.60;84.50;15.00;100704.00;;;;334224;29;83417;-91
2021/09/30 00:03:42;;;;;;;;;;;14.60;84.50;15.00;100702.00;;;;335353;29;87468;-91
2021/09/30 00:03:53;;;;;;;;;;;14.60;84.50;15.00;100705.00;;;;335486;29;82506;-91
2021/09/30 00:04:05;;;;;;;;;;;14.60;84.50;15.00;100712.00;;;;333895;29;86516;-92
2021/09/30 00:04:17;;;;;;;;;;;14.60;84.60;14.90;100709.00;;;;334111;29;83244;-92
2021/09/30 00:04:29;;;;;;;;;;;14.60;84.60;14.90;100705.00;;;;336539;28;85337;-92
2021/09/30 00:04:41;;;;;;;;;;;14.60;84.70;14.90;100705.00;;;;336719;28;83419;-92
2021/09/30 00:04:53;;;;;;;;;;;14.60;84.70;14.80;100704.00;;;;335385;29;87426;-92
2021/09/30 00:05:07;;;;;;;;;;;14.60;84.50;14.90;100702.00;;;;337954;28;83507;-91
2021/09/30 00:05:18;;;;;;;;;;;14.60;84.60;14.90;100705.00;;;;335203;29;86533;-91
2021/09/30 00:05:30;;;;;;;;;;;14.60;84.80;14.90;100707.00;;;;335425;29;82546;-91
2021/09/30 00:05:43;;;;;;;;;;;14.60;84.90;15.00;100706.00;;;;333169;29;87213;-91
2021/09/30 00:05:54;;;;;;;;;;;14.60;85.00;14.90;100705.00;;;;332729;29;82567;-91
2021/09/30 00:06:06;;;;;;;;;;;14.60;84.90;14.90;100710.00;;;;336534;28;86514;-91
2021/09/30 00:06:20;;;;;;;;;;;14.60;84.80;14.90;100703.00;;;;335354;29;83839;-91
2021/09/30 00:06:31;;;;;;;;;;;14.60;84.70;14.90;100698.00;;;;333928;29;87525;-92
2021/09/30 00:06:43;;;;;;;;;;;14.60;84.60;14.90;100699.00;;;;336616;28;82614;-91
2021/09/30 00:06:55;;;;;;;;;;;14.60;84.70;14.90;100697.00;;;;339211;28;86242;-93
2021/09/30 00:07:07;;;;;;;;;;;14.60;84.80;14.90;100704.00;;;;336846;28;83437;-91
2021/09/30 00:07:19;;;;;;;;;;;14.60;84.90;14.90;100692.00;;;;335180;29;86740;-92
2021/09/30 00:07:31;;;;;;;;;;;14.60;84.90;14.90;100692.00;;;;340772;28;83565;-91
2021/09/30 00:07:43;;;;;;;;;;;14.60;84.90;14.90;100694.00;;;;340636;28;87321;-91
2021/09/30 00:07:55;;;;;;;;;;;14.60;84.80;15.00;100695.00;;;;338005;28;83432;-91
2021/09/30 00:08:07;;;;;;;;;;;14.60;84.90;15.00;100698.00;;;;339329;28;87444;-91
2021/09/30 00:08:20;;;;;;;;;;;14.60;85.10;14.90;100699.00;;;;340756;28;83532;-92
2021/09/30 00:08:32;;;;;;;;;;;14.60;85.20;15.00;100697.00;;;;340611;28;87249;-91
2021/09/30 00:08:44;;;;;;;;;;;14.60;85.00;15.00;100696.00;;;;338077;28;82581;-91
2021/09/30 00:08:56;;;;;;;;;;;14.60;84.80;14.90;100702.00;;;;339335;28;86748;-92
2021/09/30 00:09:08;;;;;;;;;;;14.60;84.70;14.90;100699.00;;;;340580;28;82620;-91
2021/09/30 00:09:20;;;;;;;;;;;14.60;84.80;14.90;100696.00;;;;339167;28;86195;-92
2021/09/30 00:09:32;;;;;;;;;;;14.60;84.80;14.90;100701.00;;;;340771;28;82520;-92
2021/09/30 00:09:46;;;;;;;;;;;14.60;84.80;15.00;100700.00;;;;341912;28;87394;-92
2021/09/30 00:09:58;;;;;;;;;;;14.60;84.80;14.90;100692.00;;;;342076;28;83397;-92
2021/09/30 00:10:11;;;;;;;;;;;14.60;84.90;14.90;100694.00;;;;340614;28;87557;-91
2021/09/30 00:10:24;;;;;;;;;;;14.60;85.00;14.90;100700.00;;;;340695;28;82498;-91
2021/09/30 00:10:37;;;;;;;;;;;14.60;85.00;14.90;100700.00;;;;336609;28;87412;-92
2021/09/30 00:11:04;;;;;;;;;;;14.60;85.00;14.90;100700.00;;;;340800;28;82537;-91
2021/09/30 00:11:26;;;;;;;;;;;14.60;85.00;14.90;100701.00;;;;348756;27;84887;-91
2021/09/30 00:11:42;;;;;;;;;;;14.60;85.00;14.90;100699.00;;;;348715;27;83567;-91
2021/09/30 00:12:01;;;;;;;;;;;14.60;85.10;15.00;100698.00;;;;347338;28;87323;-91
2021/09/30 00:12:17;;;;;;;;;;;14.60;85.20;15.00;100696.00;;;;347598;28;83342;-91
2021/09/30 00:12:32;;;;;;;;;;;14.60;85.10;15.00;100693.00;;;;346101;28;86504;-92
2021/09/30 00:12:50;;;;;;;;;;;14.60;85.10;15.00;100706.00;;;;348948;27;83464;-91
2021/09/30 00:13:20;;;;;;;;;;;14.60;85.00;14.90;100704.00;;;;346096;28;87736;-92
2021/09/30 00:13:53;;;;;;;;;;;14.60;85.20;14.90;100698.00;;;;343332;28;87023;-92
2021/09/30 00:15:06;;;;;;;;;;;14.60;85.20;14.90;100693.00;;;;347357;28;83458;-91
2021/09/30 00:15:12;;;;;;;;;;;14.70;85.20;14.90;100700.00;;;;344016;28;87606;-91
2021/09/30 00:16:54;;;;;;;;;;;14.60;85.30;14.90;100697.00;;;;344522;28;87392;-91
2021/09/30 00:17:26;;;;;;;;;;;14.60;85.40;14.90;100699.00;;;;345956;28;82574;-92
2021/09/30 00:32:32;;;;;;;;;;;14.60;85.20;14.60;100703.00;;;;345793;28;86106;-91
2021/09/30 00:33:02;;;;;;;;;;;14.30;86.20;14.70;100706.00;;;;343368;28;87256;-92
2021/09/30 00:33:32;;;;;;;;;;;14.30;85.90;14.60;100700.00;;;;341982;28;83526;-91
2021/09/30 00:33:55;;;;;;;;;;;14.30;85.80;14.70;100699.00;;;;339208;28;86164;-92
2021/09/30 00:34:22;;;;;;;;;;;14.40;86.00;14.70;100700.00;;;;342089;28;82531;-91
2021/09/30 00:34:45;;;;;;;;;;;14.30;86.10;14.60;100698.00;;;;340502;28;86086;-92
2021/09/30 00:35:15;;;;;;;;;;;14.30;86.30;14.60;100706.00;;;;340646;28;83456;-91
2021/09/30 00:35:39;;;;;;;;;;;14.30;86.20;14.60;100702.00;;;;340617;28;86592;-91
2021/09/30 00:40:00;;;;;;;;;;;14.30;86.00;14.70;100703.00;;;;343400;28;83410;-91
2021/09/30 00:41:12;;;;;;;;;;;14.30;86.20;14.50;100711.00;;;;340459;28;86754;-91
2021/09/30 00:41:53;;;;;;;;;;;14.30;86.40;14.50;100705.00;;;;336551;28;86651;-91
2021/09/30 00:42:25;;;;;;;;;;;14.30;86.40;14.50;100703.00;;;;339175;28;83526;-92
2021/09/30 00:45:27;;;;;;;;;;;14.20;86.50;14.50;100712.00;;;;340625;28;87531;-91
2021/09/30 00:45:43;;;;;;;;;;;14.20;86.70;14.60;100714.00;;;;336951;28;82613;-91
2021/09/30 00:46:01;;;;;;;;;;;14.20;86.70;14.40;100709.00;;;;336541;28;85419;-91
2021/09/30 00:46:20;;;;;;;;;;;14.20;86.80;14.40;100708.00;;;;338054;28;83419;-92
2021/09/30 00:46:56;;;;;;;;;;;14.20;86.70;14.40;100709.00;;;;336658;28;83456;-91
2021/09/30 00:47:48;;;;;;;;;;;14.10;86.60;14.40;100711.00;;;;336886;28;83337;-91
2021/09/30 00:48:16;;;;;;;;;;;14.10;86.50;14.40;100715.00;;;;336640;28;86626;-91
2021/09/30 00:49:30;;;;;;;;;;;14.10;86.70;14.40;100708.00;;;;338088;28;83578;-88
2021/09/30 00:51:07;;;;;;;;;;;14.10;87.10;14.30;100711.00;;;;337053;28;82585;-90
2021/09/30 00:51:52;;;;;;;;;;;14.10;87.10;14.40;100714.00;;;;335918;29;85275;-90
2021/09/30 01:19:07;;;;;;;;;;;13.70;89.20;14.00;100705.00;;;;333826;29;86640;-90
2021/09/30 01:19:12;;;;;;;;;;;13.60;89.30;14.00;100705.00;;;;337983;28;83462;-90
2021/09/30 01:33:39;;;;;;;;;;;13.70;88.90;14.00;100695.00;;;;336562;28;86092;-91
2021/09/30 01:46:13;;;;;;;;;;;13.70;88.80;13.90;100686.00;;;;334002;29;86635;-90
2021/09/30 01:46:59;;;;;;;;;;;13.60;88.80;13.70;100676.00;;;;333938;29;85338;-90
2021/09/30 01:52:16;;;;;;;;;;;13.50;88.80;13.80;100677.00;;;;332738;29;85999;-90
2021/09/30 02:19:32;;;;;;;;;;;13.20;90.30;13.60;100650.00;;;;336245;28;86443;-91
2021/09/30 02:20:19;;;;;;;;;;;13.20;90.20;13.50;100655.00;;;;337798;28;86571;-91
2021/09/30 02:23:22;;;;;;;;;;;13.10;90.60;13.20;100648.00;;;;335239;28;83555;-90
2021/09/30 02:24:41;;;;;;;;;;;13.10;90.70;13.30;100650.00;;;;336433;28;82766;-90
2021/09/30 02:26:16;;;;;;;;;;;13.00;90.80;13.10;100651.00;;;;349968;27;85990;-90
2021/09/30 02:27:15;;;;;;;;;;;13.00;90.90;13.10;100655.00;;;;352666;27;82853;-90
2021/09/30 02:28:58;;;;;;;;;;;12.90;90.90;12.90;100645.00;;;;341462;28;82560;-90
2021/09/30 02:31:04;;;;;;;;;;;12.90;91.00;13.10;100645.00;;;;341553;28;86309;-90
2021/09/30 02:58:33;;;;;;;;;;;13.00;90.70;13.30;100631.00;;;;339096;28;82509;-90
2021/09/30 02:58:46;;;;;;;;;;;13.00;90.70;13.30;100629.00;;;;337744;28;82473;-90
2021/09/30 02:58:59;;;;;;;;;;;13.00;90.70;13.30;100634.00;;;;335136;29;83433;-90
2021/09/30 02:59:12;;;;;;;;;;;13.00;90.70;13.30;100630.00;;;;336286;29;86469;-90
2021/09/30 02:59:24;;;;;;;;;;;13.00;90.80;13.30;100638.00;;;;337582;28;82542;-90
2021/09/30 02:59:36;;;;;;;;;;;13.00;90.80;13.20;100642.00;;;;337717;28;87306;-90
2021/09/30 02:59:48;;;;;;;;;;;13.00;90.80;13.30;100634.00;;;;337706;28;83248;-90
2021/09/30 03:00:00;;;;;;;;;;;13.00;90.70;13.30;100633.00;;;;337519;28;85425;-90
2021/09/30 03:00:13;;;;;;;;;;;13.00;90.70;13.30;100632.00;;;;337683;28;83414;-89
2021/09/30 03:00:25;;;;;;;;;;;13.00;90.80;13.20;100628.00;;;;336295;28;87403;-90
2021/09/30 03:00:36;;;;;;;;;;;13.00;90.70;13.10;100636.00;;;;336333;29;83576;-90
2021/09/30 03:00:48;;;;;;;;;;;13.00;90.70;13.20;100630.00;;;;337630;28;87594;-90
2021/09/30 03:01:14;;;;;;;;;;;13.00;90.70;13.30;100637.00;;;;337763;28;83435;-90
2021/09/30 03:01:27;;;;;;;;;;;12.90;90.80;13.30;100634.00;;;;342317;28;87514;-90
2021/09/30 03:01:40;;;;;;;;;;;13.00;90.70;13.30;100630.00;;;;338634;28;83399;-90
2021/09/30 03:01:53;;;;;;;;;;;13.00;90.70;13.20;100641.00;;;;342709;28;86137;-90
2021/09/30 03:02:05;;;;;;;;;;;13.00;90.70;13.10;100641.00;;;;341754;28;82362;-90
2021/09/30 03:02:17;;;;;;;;;;;12.90;90.70;13.00;100628.00;;;;340266;28;86110;-90
2021/09/30 03:02:29;;;;;;;;;;;12.90;90.70;13.00;100634.00;;;;341626;28;82693;-89
2021/09/30 03:02:44;;;;;;;;;;;12.90;90.70;13.20;100639.00;;;;343408;28;86287;-90
2021/09/30 03:02:56;;;;;;;;;;;12.90;90.70;13.20;100634.00;;;;342982;28;83428;-90
2021/09/30 03:03:09;;;;;;;;;;;12.90;90.70;13.30;100637.00;;;;341563;28;87411;-90
2021/09/30 03:03:21;;;;;;;;;;;12.90;90.80;13.30;100636.00;;;;340303;28;82549;-90
2021/09/30 03:03:35;;;;;;;;;;;12.90;90.80;13.30;100628.00;;;;344299;28;86038;-90
2021/09/30 03:03:47;;;;;;;;;;;12.90;90.90;13.20;100642.00;;;;341678;28;83538;-89
2021/09/30 03:03:59;;;;;;;;;;;12.90;91.10;13.10;100642.00;;;;341672;28;86133;-90
2021/09/30 03:04:11;;;;;;;;;;;12.90;90.80;13.10;100637.00;;;;343110;28;83366;-89
2021/09/30 03:04:23;;;;;;;;;;;12.90;90.80;13.20;100635.00;;;;341682;28;86000;-90
2021/09/30 03:04:35;;;;;;;;;;;12.90;90.90;13.20;100635.00;;;;341695;28;83439;-89
2021/09/30 03:04:47;;;;;;;;;;;12.90;90.90;13.20;100634.00;;;;340299;28;85117;-90
2021/09/30 03:04:59;;;;;;;;;;;12.90;90.90;13.20;100636.00;;;;341709;28;82512;-90
2021/09/30 03:05:11;;;;;;;;;;;12.90;90.90;13.20;100639.00;;;;341628;28;86236;-90
2021/09/30 03:05:22;;;;;;;;;;;12.90;90.90;13.30;100631.00;;;;341572;28;83481;-90
2021/09/30 03:05:34;;;;;;;;;;;12.90;90.80;13.30;100632.00;;;;342628;28;86819;-90
2021/09/30 03:05:46;;;;;;;;;;;12.90;90.90;13.30;100628.00;;;;340368;28;82533;-90
2021/09/30 03:05:58;;;;;;;;;;;12.90;90.90;13.30;100636.00;;;;341413;28;86253;-90
2021/09/30 03:06:10;;;;;;;;;;;12.90;90.90;13.30;100626.00;;;;343078;28;83398;-90
2021/09/30 03:06:21;;;;;;;;;;;13.00;90.90;13.30;100630.00;;;;340280;28;86426;-90
2021/09/30 03:06:33;;;;;;;;;;;13.00;90.80;13.30;100626.00;;;;344350;28;82561;-90
2021/09/30 03:06:45;;;;;;;;;;;13.00;90.80;13.20;100631.00;;;;341524;28;87481;-90
2021/09/30 03:06:58;;;;;;;;;;;13.00;90.70;13.20;100634.00;;;;340356;28;82468;-90
2021/09/30 03:07:10;;;;;;;;;;;13.00;90.70;13.20;100621.00;;;;342973;28;87369;-89
2021/09/30 03:07:22;;;;;;;;;;;13.00;90.70;13.20;100625.00;;;;340248;28;83419;-89
2021/09/30 03:07:34;;;;;;;;;;;13.00;90.70;13.20;100631.00;;;;341582;28;87398;-90
2021/09/30 03:07:45;;;;;;;;;;;13.00;90.80;13.30;100628.00;;;;344370;28;83382;-90
2021/09/30 03:07:57;;;;;;;;;;;13.00;90.80;13.30;100629.00;;;;344198;28;87426;-90
2021/09/30 03:08:09;;;;;;;;;;;13.00;90.80;13.20;100628.00;;;;344346;28;83630;-90
2021/09/30 03:08:23;;;;;;;;;;;13.00;90.70;13.10;100633.00;;;;340105;28;86730;-90
2021/09/30 03:08:42;;;;;;;;;;;13.00;90.70;13.10;100634.00;;;;340310;28;83517;-90
2021/09/30 03:08:55;;;;;;;;;;;12.90;90.60;13.20;100643.00;;;;339989;28;86367;-90
2021/09/30 03:09:08;;;;;;;;;;;12.90;90.70;13.20;100628.00;;;;340344;28;82569;-90
2021/09/30 03:09:21;;;;;;;;;;;12.90;90.70;13.20;100623.00;;;;344242;28;85964;-90
2021/09/30 03:09:43;;;;;;;;;;;12.90;90.70;13.20;100627.00;;;;341685;28;83407;-89
2021/09/30 03:09:55;;;;;;;;;;;12.90;90.70;13.20;100639.00;;;;341490;28;86288;-90
2021/09/30 03:10:08;;;;;;;;;;;12.90;90.70;13.10;100631.00;;;;344379;28;83401;-90
2021/09/30 03:10:23;;;;;;;;;;;12.90;90.70;13.10;100630.00;;;;342912;28;87527;-89
2021/09/30 03:10:35;;;;;;;;;;;12.90;90.60;13.20;100629.00;;;;344290;28;83463;-90
2021/09/30 03:10:50;;;;;;;;;;;12.90;90.60;13.10;100630.00;;;;340208;28;87180;-90
2021/09/30 03:11:02;;;;;;;;;;;12.90;90.60;13.10;100625.00;;;;340388;28;83467;-90
2021/09/30 03:11:15;;;;;;;;;;;12.90;90.60;13.10;100629.00;;;;341453;28;87184;-90
2021/09/30 03:11:27;;;;;;;;;;;12.90;90.60;13.20;100635.00;;;;344345;28;82580;-90
2021/09/30 03:11:40;;;;;;;;;;;12.90;90.70;13.10;100626.00;;;;342746;28;87105;-90
2021/09/30 03:11:54;;;;;;;;;;;12.90;90.60;13.10;100621.00;;;;341609;28;82572;-88
2021/09/30 03:12:30;;;;;;;;;;;12.90;90.70;13.10;100628.00;;;;341607;28;86408;-90
2021/09/30 03:12:41;;;;;;;;;;;12.90;90.70;13.10;100625.00;;;;343138;28;82479;-90
2021/09/30 03:12:54;;;;;;;;;;;12.90;90.70;13.20;100630.00;;;;342848;28;86479;-90
2021/09/30 03:13:06;;;;;;;;;;;12.80;90.70;13.10;100629.00;;;;341690;28;83341;-90
2021/09/30 03:13:18;;;;;;;;;;;12.90;90.70;13.00;100621.00;;;;340129;28;86071;-90
2021/09/30 03:13:30;;;;;;;;;;;12.90;90.80;13.10;100617.00;;;;340313;28;83357;-89
2021/09/30 03:13:43;;;;;;;;;;;12.90;90.80;13.10;100618.00;;;;342914;28;87261;-90
2021/09/30 03:13:58;;;;;;;;;;;12.90;90.80;13.10;100625.00;;;;342901;28;83397;-89
2021/09/30 03:14:10;;;;;;;;;;;12.80;90.80;13.10;100628.00;;;;342908;28;87522;-90
2021/09/30 03:14:22;;;;;;;;;;;12.90;90.80;13.10;100620.00;;;;341607;28;82243;-90
2021/09/30 03:14:40;;;;;;;;;;;12.90;90.70;13.20;100619.00;;;;338910;28;83632;-90
2021/09/30 03:15:05;;;;;;;;;;;12.90;90.70;13.10;100626.00;;;;341698;28;83278;-90
2021/09/30 03:15:42;;;;;;;;;;;12.80;90.60;13.10;100622.00;;;;342923;28;83446;-90
2021/09/30 03:16:00;;;;;;;;;;;12.90;90.70;13.10;100626.00;;;;346952;28;87431;-90
2021/09/30 03:16:42;;;;;;;;;;;12.80;90.70;12.90;100623.00;;;;344252;28;87547;-90
2021/09/30 03:17:00;;;;;;;;;;;12.80;90.80;13.00;100617.00;;;;344379;28;83407;-90
2021/09/30 03:17:19;;;;;;;;;;;12.80;90.80;13.10;100626.00;;;;346944;28;87115;-90
2021/09/30 03:17:41;;;;;;;;;;;12.80;91.00;13.10;100620.00;;;;344347;28;82565;-90
2021/09/30 03:18:30;;;;;;;;;;;12.80;90.90;13.10;100621.00;;;;345819;28;82445;-90
2021/09/30 03:20:03;;;;;;;;;;;12.90;90.80;13.20;100613.00;;;;342769;28;83478;-90
2021/09/30 03:21:59;;;;;;;;;;;12.80;90.70;13.00;100614.00;;;;341720;28;83405;-90
2021/09/30 03:22:23;;;;;;;;;;;12.80;90.80;13.10;100616.00;;;;345161;28;87825;-90
2021/09/30 03:22:34;;;;;;;;;;;12.80;90.90;13.10;100612.00;;;;347115;28;82530;-90
2021/09/30 03:22:46;;;;;;;;;;;12.80;90.90;13.00;100616.00;;;;344228;28;87563;-90
2021/09/30 03:23:09;;;;;;;;;;;12.80;90.90;13.10;100613.00;;;;343060;28;82443;-90
2021/09/30 03:23:22;;;;;;;;;;;12.80;90.90;13.00;100612.00;;;;342712;28;85427;-90
2021/09/30 03:23:34;;;;;;;;;;;12.80;90.90;13.10;100614.00;;;;343003;28;83506;-90
2021/09/30 03:23:47;;;;;;;;;;;12.80;90.90;13.20;100617.00;;;;342948;28;87231;-90
2021/09/30 03:23:58;;;;;;;;;;;12.80;90.80;13.10;100614.00;;;;343069;28;82485;-90
2021/09/30 03:24:10;;;;;;;;;;;12.80;90.90;13.00;100611.00;;;;342899;28;87378;-90
2021/09/30 03:24:22;;;;;;;;;;;12.80;90.80;13.10;100613.00;;;;346951;28;83442;-90
2021/09/30 03:24:34;;;;;;;;;;;12.80;90.80;13.10;100617.00;;;;343966;28;86709;-90
2021/09/30 03:24:49;;;;;;;;;;;12.80;90.90;13.10;100613.00;;;;345468;28;82482;-90
2021/09/30 03:25:01;;;;;;;;;;;12.80;90.90;13.10;100614.00;;;;343943;28;86639;-89
2021/09/30 03:25:12;;;;;;;;;;;12.80;90.80;13.10;100609.00;;;;345783;28;83358;-90
2021/09/30 03:25:26;;;;;;;;;;;12.80;90.80;13.10;100617.00;;;;342862;28;86386;-90
2021/09/30 03:25:38;;;;;;;;;;;12.80;90.80;13.10;100612.00;;;;343035;28;83539;-89
2021/09/30 03:25:50;;;;;;;;;;;12.80;90.80;13.20;100615.00;;;;341465;28;86258;-90
2021/09/30 03:26:02;;;;;;;;;;;12.80;90.80;13.20;100613.00;;;;343019;28;83391;-90
2021/09/30 03:26:15;;;;;;;;;;;12.80;90.80;13.10;100609.00;;;;342766;28;86244;-90
2021/09/30 03:26:27;;;;;;;;;;;12.80;90.80;13.10;100614.00;;;;347253;28;83375;-90
2021/09/30 03:26:38;;;;;;;;;;;12.80;90.80;13.00;100607.00;;;;346981;28;87531;-89
2021/09/30 03:26:50;;;;;;;;;;;12.80;90.80;13.00;100605.00;;;;344239;28;83538;-90
2021/09/30 03:27:02;;;;;;;;;;;12.80;90.70;13.10;100610.00;;;;343025;28;86337;-90
2021/09/30 03:27:14;;;;;;;;;;;12.80;90.80;13.10;100607.00;;;;342947;28;82582;-90
2021/09/30 03:27:26;;;;;;;;;;;12.80;90.80;13.00;100608.00;;;;342861;28;87434;-90
2021/09/30 03:27:38;;;;;;;;;;;12.80;90.80;13.10;100607.00;;;;341577;28;82503;-90
2021/09/30 03:27:50;;;;;;;;;;;12.80;90.80;13.10;100600.00;;;;344236;28;87530;-90
2021/09/30 03:28:02;;;;;;;;;;;12.80;90.80;13.10;100604.00;;;;344350;28;83500;-90
2021/09/30 03:28:15;;;;;;;;;;;12.80;90.80;13.00;100599.00;;;;342952;28;87776;-90
2021/09/30 03:28:28;;;;;;;;;;;12.80;90.80;13.00;100610.00;;;;343036;28;83267;-90
2021/09/30 03:28:39;;;;;;;;;;;12.80;90.70;13.00;100611.00;;;;345521;28;85340;-90
2021/09/30 03:28:51;;;;;;;;;;;12.80;90.60;13.00;100602.00;;;;343006;28;83729;-89
2021/09/30 03:29:03;;;;;;;;;;;12.80;90.70;13.00;100600.00;;;;346751;28;85666;-90
2021/09/30 03:29:15;;;;;;;;;;;12.80;90.70;13.10;100611.00;;;;344350;28;83678;-90
2021/09/30 03:29:27;;;;;;;;;;;12.80;90.70;13.00;100598.00;;;;344302;28;87313;-90
2021/09/30 03:29:38;;;;;;;;;;;12.80;90.70;13.10;100603.00;;;;344425;28;83330;-90
2021/09/30 03:29:50;;;;;;;;;;;12.80;90.70;13.10;100607.00;;;;342875;28;85680;-90
2021/09/30 03:30:02;;;;;;;;;;;12.80;90.70;13.00;100605.00;;;;345614;28;82792;-90
2021/09/30 03:30:14;;;;;;;;;;;12.80;90.70;13.00;100605.00;;;;344250;28;87165;-90
2021/09/30 03:30:27;;;;;;;;;;;12.80;90.70;13.00;100605.00;;;;344522;28;83439;-90
2021/09/30 03:30:39;;;;;;;;;;;12.80;90.80;12.90;100607.00;;;;345627;28;86273;-90
2021/09/30 03:30:54;;;;;;;;;;;12.70;90.70;12.90;100612.00;;;;345670;28;82450;-90
2021/09/30 03:31:06;;;;;;;;;;;12.70;90.70;13.00;100608.00;;;;346887;28;87092;-90
2021/09/30 03:31:17;;;;;;;;;;;12.70;90.70;13.00;100603.00;;;;345627;28;83496;-89
2021/09/30 03:31:31;;;;;;;;;;;12.70;90.80;13.00;100603.00;;;;345749;28;85907;-90
2021/09/30 03:31:42;;;;;;;;;;;12.70;90.80;13.00;100599.00;;;;345558;28;83454;-90
2021/09/30 03:31:54;;;;;;;;;;;12.70;90.80;13.10;100610.00;;;;342849;28;86422;-89
2021/09/30 03:32:06;;;;;;;;;;;12.70;90.80;13.00;100607.00;;;;343072;28;83511;-90
2021/09/30 03:32:18;;;;;;;;;;;12.70;90.80;12.90;100611.00;;;;342975;28;87357;-90
2021/09/30 03:32:30;;;;;;;;;;;12.70;90.80;13.00;100601.00;;;;341630;28;83376;-89
2021/09/30 03:32:42;;;;;;;;;;;12.70;90.90;13.00;100613.00;;;;342956;28;86244;-90
2021/09/30 03:32:54;;;;;;;;;;;12.70;90.80;13.00;100605.00;;;;342994;28;83458;-90
2021/09/30 03:33:06;;;;;;;;;;;12.70;90.90;13.00;100601.00;;;;342025;28;86494;-90
2021/09/30 03:33:18;;;;;;;;;;;12.70;90.90;13.00;100604.00;;;;345689;28;83577;-90
2021/09/30 03:33:30;;;;;;;;;;;12.70;90.90;12.90;100604.00;;;;347036;28;85093;-90
2021/09/30 03:33:42;;;;;;;;;;;12.70;90.90;12.90;100604.00;;;;345750;28;83581;-90
2021/09/30 03:33:54;;;;;;;;;;;12.70;90.90;13.00;100604.00;;;;345550;28;85962;-90
2021/09/30 03:34:06;;;;;;;;;;;12.70;90.90;13.00;100603.00;;;;344356;28;83381;-88
2021/09/30 03:34:18;;;;;;;;;;;12.70;90.80;13.00;100605.00;;;;344313;28;87652;-90
2021/09/30 03:34:29;;;;;;;;;;;12.70;90.80;13.00;100606.00;;;;347181;28;82399;-90
2021/09/30 03:34:41;;;;;;;;;;;12.70;90.80;13.00;100605.00;;;;345714;28;85203;-90
2021/09/30 03:34:53;;;;;;;;;;;12.70;90.80;13.00;100605.00;;;;344333;28;82627;-90
2021/09/30 03:35:05;;;;;;;;;;;12.70;90.80;13.00;100605.00;;;;344239;28;88159;-90
2021/09/30 03:35:17;;;;;;;;;;;12.70;90.80;12.90;100601.00;;;;345678;28;83568;-90
2021/09/30 03:35:29;;;;;;;;;;;12.70;90.80;12.90;100607.00;;;;344208;28;87895;-90
2021/09/30 03:35:41;;;;;;;;;;;12.70;90.80;12.90;100605.00;;;;345566;28;83404;-90
2021/09/30 03:35:53;;;;;;;;;;;12.70;90.80;13.00;100606.00;;;;343886;28;85379;-90
2021/09/30 03:36:05;;;;;;;;;;;12.70;90.80;13.00;100600.00;;;;344407;28;83445;-90
2021/09/30 03:36:16;;;;;;;;;;;12.70;91.10;13.00;100597.00;;;;344278;28;87505;-90
2021/09/30 03:36:28;;;;;;;;;;;12.70;90.80;13.00;100608.00;;;;341026;28;82499;-90
2021/09/30 03:36:40;;;;;;;;;;;12.70;90.80;13.00;100591.00;;;;340300;28;88349;-90
2021/09/30 03:36:52;;;;;;;;;;;12.70;90.80;13.00;100596.00;;;;341993;28;83441;-89
2021/09/30 03:37:04;;;;;;;;;;;12.70;90.80;13.00;100605.00;;;;342080;28;86014;-90
2021/09/30 03:37:16;;;;;;;;;;;12.70;90.80;13.00;100612.00;;;;342027;28;83493;-90
2021/09/30 03:37:28;;;;;;;;;;;12.70;90.90;13.00;100598.00;;;;341981;28;86446;-90
2021/09/30 03:37:39;;;;;;;;;;;12.70;90.80;13.10;100607.00;;;;343412;28;83429;-90
2021/09/30 03:37:51;;;;;;;;;;;12.70;90.80;13.10;100609.00;;;;340555;28;87604;-88
2021/09/30 03:38:04;;;;;;;;;;;12.70;90.80;13.00;100603.00;;;;340739;28;83362;-90
2021/09/30 03:38:15;;;;;;;;;;;12.70;90.80;13.10;100606.00;;;;343356;28;87355;-88
2021/09/30 03:38:27;;;;;;;;;;;12.70;90.80;13.10;100596.00;;;;343475;28;83379;-90
2021/09/30 03:38:39;;;;;;;;;;;12.70;90.80;13.10;100605.00;;;;339876;28;87594;-89
2021/09/30 03:38:51;;;;;;;;;;;12.70;90.80;13.10;100600.00;;;;343477;28;83303;-90
2021/09/30 03:39:03;;;;;;;;;;;12.70;90.70;13.00;100600.00;;;;344703;28;87371;-90
2021/09/30 03:39:22;;;;;;;;;;;12.70;90.70;13.00;100601.00;;;;342090;28;82527;-89
2021/09/30 03:39:34;;;;;;;;;;;12.70;90.70;13.00;100605.00;;;;341995;28;87179;-90
2021/09/30 03:39:46;;;;;;;;;;;12.70;90.70;13.00;100606.00;;;;343382;28;83436;-90
2021/09/30 03:39:59;;;;;;;;;;;12.70;90.80;13.00;100600.00;;;;343301;28;87926;-90
2021/09/30 03:40:11;;;;;;;;;;;12.70;90.80;12.90;100603.00;;;;344838;28;83435;-90
2021/09/30 03:40:23;;;;;;;;;;;12.70;90.90;12.80;100612.00;;;;344720;28;87448;-90
2021/09/30 03:40:35;;;;;;;;;;;12.70;90.90;12.90;100603.00;;;;341904;28;82548;-89
2021/09/30 03:40:47;;;;;;;;;;;12.70;90.80;12.90;100603.00;;;;342020;28;86370;-90
2021/09/30 03:40:59;;;;;;;;;;;12.70;90.80;13.00;100603.00;;;;346190;28;82565;-90
2021/09/30 03:41:11;;;;;;;;;;;12.70;90.80;13.00;100605.00;;;;346046;28;87436;-90
2021/09/30 03:41:23;;;;;;;;;;;12.70;90.80;12.90;100603.00;;;;343419;28;83579;-90
2021/09/30 03:41:37;;;;;;;;;;;12.70;90.90;13.00;100609.00;;;;343786;28;87424;-90
2021/09/30 03:41:50;;;;;;;;;;;12.70;90.90;13.00;100603.00;;;;343431;28;82457;-90
2021/09/30 03:42:02;;;;;;;;;;;12.70;90.80;13.00;100604.00;;;;343293;28;87844;-90
2021/09/30 03:42:14;;;;;;;;;;;12.70;90.80;13.00;100604.00;;;;343483;28;83370;-90
2021/09/30 03:42:26;;;;;;;;;;;12.70;90.80;13.00;100596.00;;;;346120;28;87755;-90
2021/09/30 03:42:38;;;;;;;;;;;12.70;90.80;13.00;100605.00;;;;344764;28;82572;-90
2021/09/30 03:42:49;;;;;;;;;;;12.70;90.80;13.00;100606.00;;;;344556;28;86604;-90
2021/09/30 03:43:02;;;;;;;;;;;12.70;90.90;12.90;100602.00;;;;344817;28;83446;-90
2021/09/30 03:43:14;;;;;;;;;;;12.70;90.80;13.00;100599.00;;;;343365;28;87396;-90
2021/09/30 03:43:26;;;;;;;;;;;12.70;90.80;13.00;100602.00;;;;344800;28;82505;-90
2021/09/30 03:43:38;;;;;;;;;;;12.70;90.80;13.00;100597.00;;;;344828;28;86202;-89
2021/09/30 03:43:50;;;;;;;;;;;12.70;90.80;13.00;100600.00;;;;342005;28;82639;-90
2021/09/30 03:44:03;;;;;;;;;;;12.70;90.80;13.00;100603.00;;;;344731;28;85130;-90